Time;durP1;ratioP1;P1;durP2;ratioP2;P2;SDS_P1;SDS_P2;PMS_P1;PMS_P2;Temp;Humidity;BMP_temperature;BMP_pressure;BME280_temperature;BME280_humidity;BME280_pressure;Samples;Min_cycle;Max_cycle;Signal;HPM_P1;HPM_P2
2023/04/19 00:00:20;;;;;;;4.60;2.40;;;11.50;99.90;;;;;;5095054;28;20413;-59
2023/04/19 00:02:48;;;;;;;3.87;2.80;;;11.50;99.90;;;;;;5095584;28;20768;-60
2023/04/19 00:05:15;;;;;;;3.25;2.50;;;11.50;99.90;;;;;;5096286;28;20517;-59
2023/04/19 00:07:43;;;;;;;3.45;2.47;;;11.50;99.90;;;;;;5094574;28;20466;-60
2023/04/19 00:10:11;;;;;;;4.03;2.30;;;11.50;99.90;;;;;;5095213;28;20504;-60
2023/04/19 00:12:38;;;;;;;3.80;2.10;;;11.50;99.90;;;;;;5095311;28;20845;-58
2023/04/19 00:15:06;;;;;;;5.65;2.90;;;11.40;99.90;;;;;;5095940;28;20425;-59
2023/04/19 00:17:34;;;;;;;4.00;2.70;;;11.40;99.90;;;;;;5096078;28;20429;-59
2023/04/19 00:20:01;;;;;;;3.80;2.20;;;11.40;99.90;;;;;;5095952;28;20418;-60
2023/04/19 00:22:28;;;;;;;2.65;2.08;;;11.40;99.90;;;;;;5096222;28;20433;-60
2023/04/19 00:24:55;;;;;;;3.45;2.30;;;11.40;99.90;;;;;;5095214;28;20414;-59
2023/04/19 00:27:24;;;;;;;4.05;3.30;;;11.40;99.90;;;;;;5095612;28;20786;-59
2023/04/19 00:29:51;;;;;;;4.28;2.97;;;11.30;99.90;;;;;;5096613;28;20451;-60
2023/04/19 00:32:18;;;;;;;3.13;2.30;;;11.40;99.90;;;;;;5095933;28;20542;-60
2023/04/19 00:34:45;;;;;;;4.30;2.47;;;11.40;99.90;;;;;;5095993;28;20504;-61
2023/04/19 00:37:12;;;;;;;4.70;2.37;;;11.50;99.90;;;;;;5095978;28;20418;-60
2023/04/19 00:39:39;;;;;;;3.20;2.37;;;11.40;99.90;;;;;;5094533;28;20425;-60
2023/04/19 00:42:06;;;;;;;3.80;2.67;;;11.40;99.90;;;;;;5094330;28;20475;-59
2023/04/19 00:44:34;;;;;;;3.40;2.40;;;11.40;99.90;;;;;;5094898;28;20460;-59
2023/04/19 00:47:01;;;;;;;4.10;3.00;;;11.30;99.90;;;;;;5094231;28;20422;-60
2023/04/19 00:49:29;;;;;;;6.05;3.50;;;11.20;99.90;;;;;;5095166;28;20783;-61
2023/04/19 00:51:56;;;;;;;4.82;2.92;;;11.10;99.90;;;;;;5095461;28;20425;-59
2023/04/19 00:54:23;;;;;;;4.10;2.97;;;11.10;99.90;;;;;;5095964;28;20487;-60
2023/04/19 00:56:51;;;;;;;4.95;2.75;;;11.10;99.90;;;;;;5096206;28;20737;-60
2023/04/19 00:59:19;;;;;;;3.53;2.67;;;11.10;99.90;;;;;;5095831;28;20422;-59
2023/04/19 01:01:47;;;;;;;4.50;2.55;;;11.10;99.90;;;;;;5095979;28;20422;-60
2023/04/19 01:04:16;;;;;;;4.40;2.83;;;11.20;99.90;;;;;;5094722;28;20422;-60
2023/04/19 01:06:43;;;;;;;3.95;3.10;;;11.20;99.90;;;;;;5095309;28;20837;-60
2023/04/19 01:09:10;;;;;;;4.40;2.40;;;11.20;99.90;;;;;;5095520;28;20438;-59
2023/04/19 01:11:37;;;;;;;4.70;2.80;;;11.20;99.90;;;;;;5095718;28;20410;-59
2023/04/19 01:14:04;;;;;;;4.45;3.00;;;11.10;99.90;;;;;;5095811;28;20539;-59
2023/04/19 01:16:32;;;;;;;5.03;2.90;;;11.10;99.90;;;;;;5095633;28;20837;-59
2023/04/19 01:19:00;;;;;;;4.78;2.70;;;11.10;99.90;;;;;;5095499;28;20780;-60
2023/04/19 01:21:28;;;;;;;3.92;2.70;;;11.20;99.90;;;;;;5095279;28;20429;-59
2023/04/19 01:23:56;;;;;;;4.50;3.13;;;11.30;99.90;;;;;;5094920;28;20437;-60
2023/04/19 01:26:25;;;;;;;4.53;3.13;;;11.30;99.90;;;;;;5094867;28;20483;-60
2023/04/19 01:28:52;;;;;;;4.43;2.80;;;11.30;99.90;;;;;;5095288;28;20429;-60
2023/04/19 01:31:19;;;;;;;5.35;3.20;;;11.20;99.90;;;;;;5093774;28;20428;-59
2023/04/19 01:33:46;;;;;;;4.47;2.95;;;11.10;99.90;;;;;;5094611;28;20425;-59
2023/04/19 01:36:13;;;;;;;5.03;3.00;;;11.00;99.90;;;;;;5094233;28;20429;-60
2023/04/19 01:38:40;;;;;;;5.75;3.13;;;10.90;99.90;;;;;;5093955;28;20430;-59
2023/04/19 01:41:08;;;;;;;5.82;3.55;;;10.90;99.90;;;;;;5093365;28;20426;-58
2023/04/19 01:43:35;;;;;;;6.13;3.55;;;10.90;99.90;;;;;;5094930;28;20428;-59
2023/04/19 01:46:02;;;;;;;6.65;4.07;;;10.90;99.90;;;;;;5095006;28;20853;-61
2023/04/19 01:48:31;;;;;;;5.40;3.63;;;10.90;99.90;;;;;;5092774;28;21430;-59
2023/04/19 01:50:58;;;;;;;4.65;3.10;;;11.00;99.90;;;;;;5094741;28;20790;-60
2023/04/19 01:53:25;;;;;;;5.00;2.60;;;11.00;99.90;;;;;;5094412;28;20434;-60
2023/04/19 01:55:52;;;;;;;4.97;3.10;;;11.10;99.90;;;;;;5094291;28;20422;-60
2023/04/19 01:58:21;;;;;;;4.45;2.90;;;11.10;99.90;;;;;;5094509;28;20433;-59
2023/04/19 02:00:48;;;;;;;5.20;3.73;;;11.20;99.90;;;;;;5093391;28;20421;-60
2023/04/19 02:03:15;;;;;;;6.13;3.57;;;11.10;99.90;;;;;;5095455;28;20454;-59
2023/04/19 02:05:42;;;;;;;5.20;3.05;;;11.00;99.90;;;;;;5094873;28;20414;-60
2023/04/19 02:08:09;;;;;;;3.70;2.78;;;11.00;99.90;;;;;;5093994;28;20734;-61
2023/04/19 02:10:36;;;;;;;6.00;2.83;;;11.00;99.90;;;;;;5094658;28;20418;-59
2023/04/19 02:13:03;;;;;;;4.20;3.30;;;11.10;99.90;;;;;;5094362;28;20910;-61
2023/04/19 02:15:31;;;;;;;6.95;4.40;;;11.20;99.90;;;;;;5094252;28;20830;-60
2023/04/19 02:17:59;;;;;;;4.40;3.43;;;11.20;99.90;;;;;;5094273;28;20418;-60
2023/04/19 02:20:26;;;;;;;5.60;3.73;;;11.20;99.90;;;;;;5093983;28;20418;-61
2023/04/19 02:22:53;;;;;;;6.00;3.80;;;11.20;99.90;;;;;;5094720;28;20425;-60
2023/04/19 02:25:20;;;;;;;5.80;3.77;;;11.20;99.90;;;;;;5094571;28;20417;-60
2023/04/19 02:27:47;;;;;;;6.25;4.32;;;11.00;99.90;;;;;;5094486;28;20441;-61
2023/04/19 02:30:15;;;;;;;3.92;3.40;;;10.90;99.90;;;;;;5094057;28;20417;-60
2023/04/19 02:32:43;;;;;;;8.07;5.13;;;10.80;99.90;;;;;;5097277;28;20437;-60
2023/04/19 02:35:10;;;;;;;5.57;3.80;;;10.80;99.90;;;;;;5098503;28;20417;-60
2023/04/19 02:37:37;;;;;;;7.85;4.55;;;10.60;99.90;;;;;;5098551;28;20725;-60
2023/04/19 02:40:05;;;;;;;5.28;4.20;;;10.50;99.90;;;;;;5097073;28;20418;-60
2023/04/19 02:42:32;;;;;;;5.15;3.60;;;10.50;99.90;;;;;;5097843;28;20429;-60
2023/04/19 02:44:59;;;;;;;7.72;5.07;;;10.60;99.90;;;;;;5097824;28;20425;-58
2023/04/19 02:47:26;;;;;;;7.63;3.70;;;10.60;99.90;;;;;;5096222;28;20720;-59
2023/04/19 02:49:55;;;;;;;6.72;4.30;;;10.70;99.90;;;;;;5097023;28;20425;-59
2023/04/19 02:52:22;;;;;;;5.88;4.53;;;10.70;99.90;;;;;;5097554;28;20424;-60
2023/04/19 02:54:49;;;;;;;5.80;4.40;;;10.70;99.90;;;;;;5097441;28;20418;-60
2023/04/19 02:57:16;;;;;;;4.90;3.50;;;10.80;99.90;;;;;;5098480;28;20425;-59
2023/04/19 02:59:43;;;;;;;7.53;4.65;;;10.80;99.90;;;;;;5097893;28;20433;-60
2023/04/19 03:02:10;;;;;;;5.20;3.85;;;10.80;99.90;;;;;;5098283;28;20841;-60
2023/04/19 03:04:37;;;;;;;6.95;3.30;;;10.70;99.90;;;;;;5098140;28;20413;-59
2023/04/19 03:07:06;;;;;;;5.10;3.65;;;10.70;99.90;;;;;;5098244;28;20422;-59
2023/04/19 03:09:33;;;;;;;5.07;4.20;;;10.80;99.90;;;;;;5097952;28;20430;-61
2023/04/19 03:12:01;;;;;;;7.03;4.65;;;10.70;99.90;;;;;;5097971;28;20427;-60
2023/04/19 03:14:28;;;;;;;6.70;4.30;;;10.70;99.90;;;;;;5097706;28;20453;-59
2023/04/19 03:16:55;;;;;;;6.05;3.72;;;10.70;99.90;;;;;;5097175;28;20421;-59
2023/04/19 03:19:22;;;;;;;7.68;4.55;;;10.80;99.90;;;;;;5097839;28;20422;-59
2023/04/19 03:21:49;;;;;;;5.90;3.75;;;10.70;99.90;;;;;;5098125;28;20425;-59
2023/04/19 03:24:19;;;;;;;5.97;4.50;;;10.70;99.90;;;;;;5096734;28;20436;-59
2023/04/19 03:26:46;;;;;;;7.30;4.20;;;10.70;99.90;;;;;;5097461;28;20418;-59
2023/04/19 03:29:14;;;;;;;7.28;4.28;;;10.70;99.90;;;;;;5096588;28;20434;-59
2023/04/19 03:31:41;;;;;;;6.50;4.70;;;10.70;99.90;;;;;;5097451;28;20445;-59
2023/04/19 03:34:08;;;;;;;6.47;4.40;;;10.70;99.90;;;;;;5098131;28;20888;-59
2023/04/19 03:36:35;;;;;;;5.40;3.97;;;10.60;99.90;;;;;;5097501;28;20422;-59
2023/04/19 03:39:03;;;;;;;7.00;4.90;;;10.70;99.90;;;;;;5096563;28;20491;-59
2023/04/19 03:41:31;;;;;;;7.47;4.78;;;10.60;99.90;;;;;;5097300;28;20425;-60
2023/04/19 03:43:58;;;;;;;6.03;4.63;;;10.70;99.90;;;;;;5096358;28;20440;-59
2023/04/19 03:46:26;;;;;;;6.93;4.80;;;10.70;99.90;;;;;;5097366;28;20417;-60
2023/04/19 03:48:53;;;;;;;6.70;4.53;;;10.70;99.90;;;;;;5097020;28;20479;-59
2023/04/19 03:51:20;;;;;;;7.90;5.18;;;10.60;99.90;;;;;;5096781;28;20428;-59
2023/04/19 03:53:47;;;;;;;6.78;4.60;;;10.50;99.90;;;;;;5096413;28;20434;-59
2023/04/19 03:56:14;;;;;;;7.07;4.70;;;10.60;99.90;;;;;;5096144;28;20421;-59
2023/04/19 03:58:43;;;;;;;7.05;4.30;;;10.50;99.90;;;;;;5095921;28;20414;-59
2023/04/19 04:01:18;;;;;;;5.50;4.72;;;10.40;99.90;;;;;;5096667;28;20422;-58
2023/04/19 04:03:45;;;;;;;5.97;4.70;;;10.50;99.90;;;;;;5096191;28;20457;-59
2023/04/19 04:06:12;;;;;;;6.20;4.90;;;10.50;99.90;;;;;;5096618;28;20429;-59
2023/04/19 04:08:39;;;;;;;6.78;4.95;;;10.50;99.90;;;;;;5096477;28;20497;-58
2023/04/19 04:11:06;;;;;;;6.67;5.00;;;10.50;99.90;;;;;;5094836;28;20829;-59
2023/04/19 04:13:33;;;;;;;7.30;5.07;;;10.50;99.90;;;;;;5095897;28;20445;-59
2023/04/19 04:16:02;;;;;;;6.82;5.60;;;10.40;99.90;;;;;;5094746;28;20476;-58
2023/04/19 04:18:29;;;;;;;6.43;4.60;;;10.40;99.90;;;;;;5093221;28;20441;-59
2023/04/19 04:20:56;;;;;;;7.23;4.93;;;10.30;99.90;;;;;;5093452;28;20809;-59
2023/04/19 04:23:24;;;;;;;6.80;5.20;;;10.30;99.90;;;;;;5093502;28;20492;-59
2023/04/19 04:25:59;;;;;;;6.95;4.35;;;10.30;99.90;;;;;;5094240;28;20426;-59
2023/04/19 04:28:26;;;;;;;8.73;5.30;;;10.30;99.90;;;;;;5095142;28;20729;-60
2023/04/19 04:30:56;;;;;;;7.40;4.67;;;10.20;99.90;;;;;;5094586;28;20422;-59
2023/04/19 04:33:25;;;;;;;8.77;6.15;;;10.10;99.90;;;;;;5094658;28;20872;-59
2023/04/19 04:35:53;;;;;;;7.50;5.50;;;10.10;99.90;;;;;;5095305;28;20429;-59
2023/04/19 04:38:20;;;;;;;9.00;6.38;;;10.20;99.90;;;;;;5093570;28;20841;-58
2023/04/19 04:40:52;;;;;;;4.82;3.80;;;10.20;99.90;;;;;;5094596;28;20426;-58
2023/04/19 04:43:20;;;;;;;5.97;4.22;;;10.40;99.90;;;;;;5093934;28;20469;-58
2023/04/19 04:45:47;;;;;;;5.63;4.45;;;10.50;99.90;;;;;;5094088;28;20849;-59
2023/04/19 04:48:14;;;;;;;7.60;5.40;;;10.60;99.90;;;;;;5094059;28;20516;-56
2023/04/19 04:50:43;;;;;;;6.13;3.60;;;10.70;99.90;;;;;;5094597;28;20429;-59
2023/04/19 04:53:11;;;;;;;7.05;5.20;;;10.70;99.90;;;;;;5093658;28;20911;-59
2023/04/19 04:55:38;;;;;;;8.98;5.10;;;10.70;99.90;;;;;;5092997;28;20478;-58
2023/04/19 04:58:05;;;;;;;8.10;4.88;;;10.80;99.90;;;;;;5092976;28;20425;-58
2023/04/19 05:00:33;;;;;;;7.55;5.78;;;10.70;99.90;;;;;;5092386;28;20719;-57
2023/04/19 05:03:00;;;;;;;6.67;4.90;;;10.60;99.90;;;;;;5091502;28;20731;-59
2023/04/19 05:05:27;;;;;;;5.68;3.97;;;10.50;99.90;;;;;;5090597;28;20426;-58
2023/04/19 05:07:56;;;;;;;6.70;5.38;;;10.70;99.90;;;;;;5091469;28;20426;-58
2023/04/19 05:10:23;;;;;;;6.22;4.20;;;10.70;99.90;;;;;;5091350;28;21020;-59
2023/04/19 05:12:50;;;;;;;7.22;5.00;;;10.80;99.90;;;;;;5091312;28;20845;-55
2023/04/19 05:15:17;;;;;;;6.10;4.55;;;10.90;99.90;;;;;;5090548;28;20422;-58
2023/04/19 05:17:44;;;;;;;7.30;4.70;;;11.00;99.90;;;;;;5090684;28;20426;-59
2023/04/19 05:20:11;;;;;;;6.97;4.60;;;11.00;99.90;;;;;;5090587;28;20421;-58
2023/04/19 05:22:38;;;;;;;5.70;3.58;;;11.00;99.90;;;;;;5091477;28;20422;-59
2023/04/19 05:25:10;;;;;;;6.55;4.43;;;11.00;99.90;;;;;;5092346;28;20434;-58
2023/04/19 05:27:37;;;;;;;4.57;3.75;;;10.80;99.90;;;;;;5091670;28;20426;-59
2023/04/19 05:30:05;;;;;;;6.05;4.28;;;10.60;99.90;;;;;;5089593;28;20734;-58
2023/04/19 05:32:32;;;;;;;5.50;3.90;;;10.60;99.90;;;;;;5089593;28;20437;-59
2023/04/19 05:34:59;;;;;;;5.65;4.18;;;10.80;99.90;;;;;;5092099;28;20729;-59
2023/04/19 05:37:26;;;;;;;6.15;5.00;;;10.90;99.90;;;;;;5092542;28;20487;-57
2023/04/19 05:39:53;;;;;;;7.75;5.15;;;10.70;99.90;;;;;;5092064;28;20421;-58
2023/04/19 05:42:21;;;;;;;7.15;4.65;;;10.40;99.90;;;;;;5091616;28;20433;-59
2023/04/19 05:44:48;;;;;;;7.88;5.40;;;10.30;99.90;;;;;;5089796;28;20731;-58
2023/04/19 05:47:16;;;;;;;6.47;4.90;;;10.40;99.90;;;;;;5089644;28;20418;-59
2023/04/19 05:49:43;;;;;;;6.68;4.70;;;10.40;99.90;;;;;;5088766;28;20657;-57
2023/04/19 05:52:10;;;;;;;8.07;5.05;;;10.50;99.90;;;;;;5088126;28;20417;-59
2023/04/19 05:54:37;;;;;;;6.15;4.57;;;10.40;99.90;;;;;;5088475;28;20417;-57
2023/04/19 05:57:04;;;;;;;7.55;4.32;;;10.40;99.90;;;;;;5089241;28;20409;-58
2023/04/19 05:59:33;;;;;;;7.55;5.03;;;10.50;99.90;;;;;;5091255;28;20829;-58
2023/04/19 06:02:00;;;;;;;7.03;4.47;;;10.30;99.90;;;;;;5089518;28;20421;-59
2023/04/19 06:04:27;;;;;;;6.88;4.50;;;10.30;99.90;;;;;;5089529;28;20500;-59
2023/04/19 06:06:54;;;;;;;6.60;4.50;;;10.40;99.90;;;;;;5089534;28;20837;-58
2023/04/19 06:09:21;;;;;;;6.90;4.32;;;10.40;99.90;;;;;;5089143;28;20854;-58
2023/04/19 06:11:48;;;;;;;7.53;5.03;;;10.30;99.90;;;;;;5086659;28;20927;-58
2023/04/19 06:14:15;;;;;;;7.10;5.17;;;10.30;99.90;;;;;;5088006;28;20456;-57
2023/04/19 06:16:44;;;;;;;6.97;4.50;;;10.20;99.90;;;;;;5089325;28;20418;-56
2023/04/19 06:19:11;;;;;;;5.90;3.90;;;10.40;99.90;;;;;;5090967;28;20844;-57
2023/04/19 06:21:38;;;;;;;8.02;4.00;;;10.60;99.90;;;;;;5088569;28;20520;-57
2023/04/19 06:24:07;;;;;;;7.15;3.65;;;10.90;99.90;;;;;;5088710;28;20438;-60
2023/04/19 06:26:34;;;;;;;6.60;4.40;;;11.20;99.90;;;;;;5088110;28;20429;-57
2023/04/19 06:29:01;;;;;;;6.25;4.20;;;11.10;99.90;;;;;;5089246;28;20487;-56
2023/04/19 06:31:28;;;;;;;7.32;4.72;;;10.90;99.90;;;;;;5088058;28;20430;-58
2023/04/19 06:33:56;;;;;;;6.18;4.18;;;10.70;99.90;;;;;;5088345;28;20430;-57
2023/04/19 06:36:24;;;;;;;7.00;4.63;;;10.60;99.90;;;;;;5088608;28;20417;-56
2023/04/19 06:38:51;;;;;;;6.75;4.03;;;10.70;99.90;;;;;;5091119;28;20425;-57
2023/04/19 06:41:18;;;;;;;7.35;4.32;;;10.60;99.90;;;;;;5088199;28;20626;-54
2023/04/19 06:43:45;;;;;;;7.20;4.55;;;10.50;99.90;;;;;;5090255;28;20417;-57
2023/04/19 06:46:13;;;;;;;6.35;3.60;;;10.80;99.90;;;;;;5089612;28;20426;-57
2023/04/19 06:48:40;;;;;;;7.55;4.53;;;11.10;99.90;;;;;;5081444;28;20855;-57
2023/04/19 06:51:09;;;;;;;7.55;3.92;;;11.30;99.90;;;;;;5067004;28;20420;-58
2023/04/19 06:53:36;;;;;;;6.53;4.30;;;11.10;99.90;;;;;;5068753;28;21188;-58
2023/04/19 06:56:04;;;;;;;7.00;4.65;;;11.20;99.90;;;;;;5067689;28;20513;-58
2023/04/19 06:58:32;;;;;;;6.38;4.50;;;11.00;99.90;;;;;;5083868;28;20731;-57
2023/04/19 07:01:00;;;;;;;5.88;3.92;;;11.10;99.90;;;;;;5089616;28;20495;-57
2023/04/19 07:03:27;;;;;;;5.88;4.20;;;11.20;99.90;;;;;;5089615;28;20467;-53
2023/04/19 07:05:56;;;;;;;6.25;4.40;;;11.10;99.90;;;;;;5089059;28;20509;-57
2023/04/19 07:08:25;;;;;;;5.13;3.50;;;11.10;99.90;;;;;;5089593;28;20422;-57
2023/04/19 07:10:52;;;;;;;6.25;4.38;;;11.40;99.90;;;;;;5089339;28;20434;-55
2023/04/19 07:13:20;;;;;;;4.28;3.10;;;11.60;99.90;;;;;;5091101;28;20784;-62
2023/04/19 07:15:47;;;;;;;6.57;4.20;;;11.50;99.90;;;;;;5089630;28;20417;-60
2023/04/19 07:18:15;;;;;;;4.90;2.60;;;11.50;99.90;;;;;;5090568;28;20437;-62
2023/04/19 07:20:47;;;;;;;5.60;3.92;;;11.60;99.90;;;;;;5090602;28;20864;-60
2023/04/19 07:23:14;;;;;;;7.57;4.40;;;11.90;99.90;;;;;;5091878;28;20493;-61
2023/04/19 07:25:43;;;;;;;6.10;4.10;;;11.90;99.90;;;;;;5092441;28;20440;-62
2023/04/19 07:28:10;;;;;;;6.03;3.83;;;11.90;99.90;;;;;;5089979;28;20437;-61
2023/04/19 07:30:37;;;;;;;6.35;4.45;;;11.80;99.90;;;;;;5092123;28;20422;-62
2023/04/19 07:33:07;;;;;;;5.27;3.50;;;11.80;99.90;;;;;;5092689;28;20422;-60
2023/04/19 07:35:34;;;;;;;7.38;3.90;;;11.90;99.90;;;;;;5072284;28;20432;-60
2023/04/19 07:38:01;;;;;;;4.10;2.60;;;12.10;99.90;;;;;;5088659;28;20478;-60
2023/04/19 07:40:29;;;;;;;5.75;3.70;;;12.50;99.90;;;;;;5091950;28;20421;-61
2023/04/19 07:42:57;;;;;;;6.03;4.20;;;12.70;99.90;;;;;;5092079;28;20458;-60
2023/04/19 07:45:24;;;;;;;4.43;3.10;;;12.50;99.90;;;;;;5092462;28;20935;-61
2023/04/19 07:47:51;;;;;;;7.40;4.60;;;12.50;99.90;;;;;;5094176;28;20486;-60
2023/04/19 07:50:19;;;;;;;4.45;3.60;;;12.60;99.90;;;;;;5091422;28;20720;-61
2023/04/19 07:52:48;;;;;;;5.10;3.85;;;12.70;99.90;;;;;;5090614;28;20438;-60
2023/04/19 07:55:15;;;;;;;6.05;4.30;;;12.70;99.90;;;;;;5090118;28;20410;-60
2023/04/19 07:57:46;;;;;;;4.25;2.70;;;12.70;99.90;;;;;;5086549;28;20862;-61
2023/04/19 08:00:16;;;;;;;3.88;2.83;;;12.80;99.90;;;;;;5088739;28;20426;-61
2023/04/19 08:02:44;;;;;;;4.10;2.85;;;13.00;99.90;;;;;;5087575;28;20518;-61
2023/04/19 08:05:12;;;;;;;5.50;2.72;;;13.10;99.90;;;;;;5088820;28;20441;-62
2023/04/19 08:07:39;;;;;;;4.47;3.50;;;13.40;99.90;;;;;;5089483;28;20937;-61
2023/04/19 08:10:08;;;;;;;5.50;3.15;;;13.50;99.90;;;;;;5089001;28;20426;-60
2023/04/19 08:12:36;;;;;;;3.70;2.40;;;13.40;99.90;;;;;;5087220;28;20438;-62
2023/04/19 08:15:03;;;;;;;3.83;2.45;;;13.20;99.90;;;;;;5091244;28;20800;-61
2023/04/19 08:17:32;;;;;;;3.13;2.33;;;13.20;99.90;;;;;;5086437;28;20924;-61
2023/04/19 08:19:59;;;;;;;3.70;2.80;;;13.20;99.90;;;;;;5091789;28;20516;-62
2023/04/19 08:22:27;;;;;;;4.85;2.70;;;13.30;99.90;;;;;;5093191;28;20429;-61
2023/04/19 08:24:54;;;;;;;3.17;2.13;;;13.60;99.90;;;;;;5091481;28;20845;-61
2023/04/19 08:27:22;;;;;;;3.40;2.70;;;13.90;99.90;;;;;;5091266;28;20701;-60
2023/04/19 08:29:50;;;;;;;3.42;2.75;;;13.60;99.90;;;;;;5089635;28;20437;-62
2023/04/19 08:32:17;;;;;;;3.40;2.42;;;13.30;99.90;;;;;;5093365;28;20739;-62
2023/04/19 08:34:46;;;;;;;3.85;2.00;;;13.30;99.90;;;;;;5068908;28;20427;-61
2023/04/19 08:37:14;;;;;;;3.13;2.05;;;13.20;99.90;;;;;;5075159;28;20741;-60
2023/04/19 08:39:41;;;;;;;4.70;2.00;;;13.10;99.90;;;;;;5086816;28;20851;-61
2023/04/19 08:42:10;;;;;;;3.47;2.05;;;13.30;99.90;;;;;;5086743;28;20430;-61
2023/04/19 08:44:37;;;;;;;3.35;1.70;;;13.40;99.90;;;;;;5088553;28;20440;-62
2023/04/19 08:47:05;;;;;;;2.65;1.90;;;13.50;99.90;;;;;;5084345;28;20546;-60
2023/04/19 08:49:35;;;;;;;2.90;1.70;;;13.60;99.90;;;;;;5083536;28;20434;-62
2023/04/19 08:52:04;;;;;;;3.35;1.98;;;13.60;99.90;;;;;;5088678;28;20557;-61
2023/04/19 08:54:32;;;;;;;3.77;2.13;;;13.60;99.90;;;;;;5088574;28;20841;-61
2023/04/19 08:57:00;;;;;;;3.15;2.25;;;13.50;99.90;;;;;;5091113;28;20876;-60
2023/04/19 08:59:29;;;;;;;3.03;2.10;;;13.80;99.90;;;;;;5090489;28;20512;-62
2023/04/19 09:01:58;;;;;;;3.55;2.08;;;13.90;99.90;;;;;;5087003;28;20430;-61
2023/04/19 09:04:28;;;;;;;4.15;2.00;;;13.70;99.90;;;;;;5088231;28;20729;-60
2023/04/19 09:06:56;;;;;;;3.20;2.00;;;13.70;99.90;;;;;;5084625;28;20465;-60
2023/04/19 09:09:27;;;;;;;2.43;1.60;;;13.70;99.90;;;;;;5081376;28;20802;-61
2023/04/19 09:11:54;;;;;;;3.22;1.80;;;13.90;99.90;;;;;;5089240;28;20434;-62
2023/04/19 09:14:22;;;;;;;2.90;2.00;;;14.40;99.90;;;;;;5088341;28;20577;-62
2023/04/19 09:16:50;;;;;;;2.97;1.60;;;14.60;99.90;;;;;;5089175;28;20445;-61
2023/04/19 09:19:18;;;;;;;3.10;1.90;;;14.70;99.90;;;;;;5088491;28;20923;-61
2023/04/19 09:21:50;;;;;;;3.33;1.92;;;14.90;99.90;;;;;;5086632;28;20491;-61
2023/04/19 09:24:17;;;;;;;2.60;1.63;;;15.10;99.90;;;;;;5084645;28;20438;-61
2023/04/19 09:26:57;;;;;;;3.45;2.17;;;15.20;99.90;;;;;;5083951;28;20430;-62
2023/04/19 09:29:25;;;;;;;3.80;2.42;;;15.40;99.90;;;;;;5085416;28;20477;-62
2023/04/19 09:31:59;;;;;;;4.20;2.40;;;15.40;99.90;;;;;;5089125;28;20426;-60
2023/04/19 09:34:28;;;;;;;4.38;2.30;;;15.40;99.90;;;;;;5089925;28;20449;-59
2023/04/19 09:36:55;;;;;;;3.88;2.35;;;14.90;99.90;;;;;;5088529;28;20420;-59
2023/04/19 09:39:30;;;;;;;3.28;2.20;;;15.20;99.90;;;;;;5085947;28;20523;-61
2023/04/19 09:41:59;;;;;;;3.88;2.25;;;15.20;99.90;;;;;;5090330;28;20414;-61
2023/04/19 09:44:27;;;;;;;4.35;1.75;;;15.00;99.90;;;;;;5084248;28;20430;-61
2023/04/19 09:46:54;;;;;;;3.60;2.53;;;15.10;99.90;;;;;;5086933;28;20435;-61
2023/04/19 09:49:23;;;;;;;3.63;2.57;;;15.30;99.90;;;;;;5089870;28;20512;-62
2023/04/19 09:51:52;;;;;;;4.63;2.40;;;15.20;99.90;;;;;;5086769;28;20457;-62
2023/04/19 09:54:21;;;;;;;3.92;2.15;;;15.30;99.90;;;;;;5088186;28;20871;-62
2023/04/19 09:56:49;;;;;;;3.55;2.30;;;15.50;99.90;;;;;;5082811;28;20951;-63
2023/04/19 09:59:18;;;;;;;2.88;2.35;;;15.40;99.90;;;;;;5084101;28;20524;-61
2023/04/19 10:01:52;;;;;;;3.83;2.00;;;15.30;99.90;;;;;;5084448;28;20432;-61
2023/04/19 10:04:22;;;;;;;2.63;1.92;;;15.20;99.90;;;;;;5086646;28;20727;-63
2023/04/19 10:06:50;;;;;;;2.70;1.80;;;15.30;99.90;;;;;;5086963;28;20536;-61
2023/04/19 10:09:19;;;;;;;3.55;1.70;;;15.20;99.90;;;;;;5089220;28;20849;-60
2023/04/19 10:11:49;;;;;;;2.92;1.60;;;15.30;99.90;;;;;;5089401;28;20743;-60
2023/04/19 10:14:22;;;;;;;3.85;1.90;;;15.30;99.90;;;;;;5088935;28;20437;-59
2023/04/19 10:16:49;;;;;;;2.80;1.95;;;15.50;99.90;;;;;;5091073;28;20865;-60
2023/04/19 10:19:19;;;;;;;3.08;2.20;;;15.60;99.90;;;;;;5089660;28;20437;-60
2023/04/19 10:21:48;;;;;;;3.15;1.80;;;15.50;99.90;;;;;;5090733;28;20420;-61
2023/04/19 10:24:17;;;;;;;3.22;1.95;;;15.50;99.90;;;;;;5086352;28;20438;-60
2023/04/19 10:27:07;;;;;;;3.78;2.22;;;15.40;99.90;;;;;;5085944;28;20433;-59
2023/04/19 10:29:59;;;;;;;3.47;2.05;;;15.50;99.90;;;;;;5084019;28;20437;-61
2023/04/19 10:32:28;;;;;;;3.08;2.47;;;15.60;99.90;;;;;;5085640;28;20437;-63
2023/04/19 10:34:55;;;;;;;3.00;2.00;;;15.50;99.90;;;;;;5084721;28;20759;-61
2023/04/19 10:37:25;;;;;;;3.65;2.13;;;15.50;99.90;;;;;;5088508;28;20565;-61
2023/04/19 10:39:52;;;;;;;2.63;2.03;;;15.40;99.90;;;;;;5082112;28;20778;-61
2023/04/19 10:42:19;;;;;;;5.18;2.50;;;15.30;99.90;;;;;;5087732;28;20852;-60
2023/04/19 10:45:24;;;;;;;2.60;2.10;;;15.50;99.90;;;;;;5087728;28;20524;-60
2023/04/19 10:47:52;;;;;;;4.22;2.40;;;15.40;99.90;;;;;;5088564;28;20718;-59
2023/04/19 10:50:19;;;;;;;4.32;2.30;;;15.10;99.90;;;;;;5083280;28;20429;-60
2023/04/19 10:52:46;;;;;;;2.72;1.90;;;15.20;99.90;;;;;;5086482;28;20445;-61
2023/04/19 10:55:18;;;;;;;3.95;2.80;;;15.30;99.90;;;;;;5090198;28;20433;-61
2023/04/19 10:58:02;;;;;;;2.80;1.80;;;15.00;99.90;;;;;;5089152;28;20443;-61
2023/04/19 11:00:32;;;;;;;5.05;1.95;;;14.90;99.90;;;;;;5091481;28;20425;-61
2023/04/19 11:03:20;;;;;;;2.80;1.85;;;14.90;99.90;;;;;;5090768;28;20484;-60
2023/04/19 11:06:19;;;;;;;3.55;2.10;;;14.80;99.90;;;;;;5092173;28;20554;-61
2023/04/19 11:08:46;;;;;;;3.60;2.50;;;14.80;99.90;;;;;;5087159;28;20457;-63
2023/04/19 11:11:15;;;;;;;2.30;1.83;;;14.80;99.90;;;;;;5089630;28;20861;-61
2023/04/19 11:13:43;;;;;;;2.60;1.83;;;14.90;99.90;;;;;;5093060;28;20465;-61
2023/04/19 11:16:10;;;;;;;3.50;2.10;;;14.80;99.90;;;;;;5089844;28;20439;-61
2023/04/19 11:18:39;;;;;;;5.05;1.80;;;14.70;99.90;;;;;;5083182;28;20485;-60
2023/04/19 11:21:06;;;;;;;3.17;2.13;;;14.60;99.90;;;;;;5093444;28;20433;-58
2023/04/19 11:23:33;;;;;;;2.70;1.73;;;14.70;99.90;;;;;;5089444;28;20451;-59
2023/04/19 11:26:00;;;;;;;3.00;1.70;;;14.70;99.90;;;;;;5089687;28;20440;-59
2023/04/19 11:28:27;;;;;;;4.20;2.30;;;14.70;99.90;;;;;;5089218;28;20458;-59
2023/04/19 11:30:55;;;;;;;3.08;2.28;;;14.40;99.90;;;;;;5088969;28;20849;-60
2023/04/19 11:33:23;;;;;;;3.90;2.70;;;14.10;99.90;;;;;;5088109;28;20759;-60
2023/04/19 11:35:52;;;;;;;4.10;2.85;;;14.10;99.90;;;;;;5091277;28;20596;-60
2023/04/19 11:38:19;;;;;;;3.50;2.40;;;13.90;99.90;;;;;;5089207;28;20421;-60
2023/04/19 11:40:46;;;;;;;3.97;2.83;;;13.80;99.90;;;;;;5088071;28;20422;-60
2023/04/19 11:43:13;;;;;;;4.68;2.47;;;13.60;99.90;;;;;;5091435;28;20538;-59
2023/04/19 11:45:40;;;;;;;4.30;2.30;;;13.40;99.90;;;;;;5087723;28;20433;-61
2023/04/19 11:48:13;;;;;;;3.97;2.53;;;13.30;99.90;;;;;;5091905;28;20452;-62
2023/04/19 11:50:42;;;;;;;4.65;3.00;;;13.20;99.90;;;;;;5089183;28;20581;-60
2023/04/19 11:53:15;;;;;;;3.55;2.90;;;13.10;99.90;;;;;;5094419;28;20425;-60
2023/04/19 11:55:44;;;;;;;4.45;2.55;;;13.00;99.90;;;;;;5091055;28;20426;-60
2023/04/19 11:58:28;;;;;;;6.57;4.10;;;12.90;99.90;;;;;;5091658;28;20433;-60
2023/04/19 12:00:57;;;;;;;5.03;3.55;;;12.80;99.90;;;;;;5087673;28;20756;-60
2023/04/19 12:03:24;;;;;;;7.07;4.25;;;12.70;99.90;;;;;;5090845;28;20429;-60
2023/04/19 12:05:56;;;;;;;4.78;3.63;;;12.70;99.90;;;;;;5093191;28;20418;-59
2023/04/19 12:08:35;;;;;;;5.72;3.78;;;12.60;99.90;;;;;;5089638;28;20463;-61
2023/04/19 12:11:03;;;;;;;4.90;4.13;;;12.40;99.90;;;;;;5087526;28;20516;-61
2023/04/19 12:13:30;;;;;;;6.32;5.03;;;12.40;99.90;;;;;;5093128;28;20651;-59
2023/04/19 12:15:58;;;;;;;8.02;4.95;;;12.50;99.90;;;;;;5092981;28;20528;-60
2023/04/19 12:18:26;;;;;;;6.28;5.10;;;12.30;99.90;;;;;;5088449;28;20551;-59
2023/04/19 12:20:53;;;;;;;6.70;4.57;;;12.20;99.90;;;;;;5090642;28;20677;-59
2023/04/19 12:23:21;;;;;;;8.68;6.03;;;12.20;99.90;;;;;;5089186;28;20445;-59
2023/04/19 12:25:49;;;;;;;8.95;5.85;;;12.00;99.90;;;;;;5090121;28;20434;-60
2023/04/19 12:28:17;;;;;;;7.05;5.53;;;11.80;99.90;;;;;;5089056;28;20434;-60
2023/04/19 12:30:44;;;;;;;7.30;5.10;;;11.60;99.90;;;;;;5090233;28;21045;-59
2023/04/19 12:33:11;;;;;;;7.60;6.00;;;11.50;99.90;;;;;;5087294;28;20444;-60
2023/04/19 12:35:38;;;;;;;7.60;6.23;;;11.50;99.90;;;;;;5090161;28;20453;-59
2023/04/19 12:38:05;;;;;;;9.02;5.97;;;11.50;99.90;;;;;;5088112;28;20436;-60
2023/04/19 12:40:33;;;;;;;10.82;6.88;;;11.40;99.90;;;;;;5084202;28;20438;-61
2023/04/19 12:43:02;;;;;;;9.40;6.40;;;11.40;99.90;;;;;;5084545;28;20730;-61
2023/04/19 12:45:29;;;;;;;9.45;6.35;;;11.40;99.90;;;;;;5087469;28;20488;-59
2023/04/19 12:47:56;;;;;;;9.48;6.72;;;11.30;99.90;;;;;;5086627;28;20441;-60
2023/04/19 12:50:23;;;;;;;12.70;9.40;;;11.30;99.90;;;;;;5088646;28;20873;-58